Terminal Aerodrome Forecast
Issued by NWS

Home | Current Version | Previous Version | Text Only | Print | Product List | Glossary On
Versions: 1 2 3 4 5 6 7 8 9 10 11 12
452
FTUS43 KMQT 271130
TAFCMX
TAF
KCMX 271130Z 2712/2812 36012G19KT 1/2SM SN OVC010
     FM271400 34015KT 1/4SM +SN OVC005
     FM271800 31015KT 3/4SM -SN OVC008
     FM272100 28015G25KT 1SM -SN OVC008
     FM280200 27013G22KT 2SM -SN OVC008
     FM280400 27012G21KT 3SM -SHSN OVC010
     FM281000 26012G20KT P6SM OVC015=

USA.gov is the U.S. government's official web portal to all federal, state and local government web resources and services.